Accueil
METAR-TAF:

METAR-TAF

Aéroports :

Aéroport de Gênes-Christophe Colomb

Gênes, Italie

latitude: 44-25N, longitude: 008-51E, altitude: 2 m

Observation

Le bulletin a été fait il y a 34 minutes, à 23:50 UTC
Vent 15 kt de sud/sud-est
Température 12°C
Humidité 76%
Pression 1017 hPa
Visibilité 10 km ou plus
Nuages épars à une hauteur de 2100 ft
Nuages fragmentés à une hauteur de 4000 ft

METAR: LIMJ 162350Z 15015KT 9999 SCT021 BKN040 12/08 Q1017

Heure: 01:24 (00:24 UTC)

Prévision

Le bulletin a été fait il y a 1 heure et 24 minutes, à 23:00 UTC
Prévision valable du 17 à 00 UTC au 17 à 24 UTC
Vent 15 kt de sud
Visibilité 10 km ou plus
Nuages épars à une hauteur de 1500 ft
Nuages fragmentés à une hauteur de 5000 ft
pluie
Evoluant progressivement
du 17 à 13 UTC au 17 à 15 UTC

TAF: LIMJ 162300Z 1700/1724 17015KT 9999 RA SCT015 BKN050 BECMG 1713/1715 NSW

Observations et prévisions météorologiques de plus de 4000 aéroports (messages METAR et TAF).

Les stations disponibles sont représentées par des disques jaunes et rouges sur la carte.

Passer la souris dessus pour voir le nom de la station.

Cliquer dessus pour voir les observations et prévisions météorologiques.

Pour changer de carte: cliquez sur les boutons verts avec une croix noire pour zoomer, sur le bouton vert avec un tiret pour effectuer un zoom arrière, ou sur les flèches vertes pour les cartes adjacentes.


METAR-TAF: